sensor_id;sensor_type;location;lat;lon;timestamp;P1;durP1;ratioP1;P2;durP2;ratioP2
77870;SDS011;67067;46.850;7.578;2023-11-21T00:00:16;2.15;;;1.27;;
77870;SDS011;67067;46.850;7.578;2023-11-21T00:01:19;3.55;;;1.08;;
77870;SDS011;67067;46.850;7.578;2023-11-21T00:02:21;3.65;;;1.70;;
77870;SDS011;67067;46.850;7.578;2023-11-21T00:03:23;5.40;;;1.10;;
77870;SDS011;67067;46.850;7.578;2023-11-21T00:04:25;2.63;;;1.48;;
77870;SDS011;67067;46.850;7.578;2023-11-21T00:05:29;1.60;;;1.30;;
77870;SDS011;67067;46.850;7.578;2023-11-21T00:06:31;5.30;;;1.40;;
77870;SDS011;67067;46.850;7.578;2023-11-21T00:07:32;1.75;;;1.00;;
77870;SDS011;67067;46.850;7.578;2023-11-21T00:08:35;1.48;;;1.02;;
77870;SDS011;67067;46.850;7.578;2023-11-21T00:09:40;3.50;;;1.63;;
77870;SDS011;67067;46.850;7.578;2023-11-21T00:10:45;4.90;;;1.30;;
77870;SDS011;67067;46.850;7.578;2023-11-21T00:11:47;2.30;;;1.23;;
77870;SDS011;67067;46.850;7.578;2023-11-21T00:13:53;4.13;;;1.40;;
77870;SDS011;67067;46.850;7.578;2023-11-21T00:14:55;4.57;;;1.30;;
77870;SDS011;67067;46.850;7.578;2023-11-21T00:15:59;1.73;;;1.20;;
77870;SDS011;67067;46.850;7.578;2023-11-21T00:17:01;5.72;;;1.45;;
77870;SDS011;67067;46.850;7.578;2023-11-21T00:19:11;2.78;;;0.93;;
77870;SDS011;67067;46.850;7.578;2023-11-21T00:20:13;4.05;;;1.30;;
77870;SDS011;67067;46.850;7.578;2023-11-21T00:22:17;2.40;;;1.17;;
77870;SDS011;67067;46.850;7.578;2023-11-21T00:23:19;3.80;;;0.88;;
77870;SDS011;67067;46.850;7.578;2023-11-21T00:25:26;1.20;;;0.80;;
77870;SDS011;67067;46.850;7.578;2023-11-21T00:27:35;1.70;;;1.10;;
77870;SDS011;67067;46.850;7.578;2023-11-21T00:28:37;3.38;;;1.17;;
77870;SDS011;67067;46.850;7.578;2023-11-21T00:29:39;3.85;;;1.10;;
77870;SDS011;67067;46.850;7.578;2023-11-21T00:30:41;4.88;;;0.98;;
77870;SDS011;67067;46.850;7.578;2023-11-21T00:32:46;1.50;;;0.93;;
77870;SDS011;67067;46.850;7.578;2023-11-21T00:33:50;3.55;;;1.10;;
77870;SDS011;67067;46.850;7.578;2023-11-21T00:34:52;3.30;;;0.95;;
77870;SDS011;67067;46.850;7.578;2023-11-21T00:35:56;3.28;;;1.00;;
77870;SDS011;67067;46.850;7.578;2023-11-21T00:36:58;2.85;;;0.98;;
77870;SDS011;67067;46.850;7.578;2023-11-21T00:38:00;2.40;;;1.15;;
77870;SDS011;67067;46.850;7.578;2023-11-21T00:39:02;2.22;;;1.10;;
77870;SDS011;67067;46.850;7.578;2023-11-21T00:40:04;2.78;;;1.10;;
77870;SDS011;67067;46.850;7.578;2023-11-21T00:41:09;4.57;;;1.30;;
77870;SDS011;67067;46.850;7.578;2023-11-21T00:43:12;6.38;;;1.10;;
77870;SDS011;67067;46.850;7.578;2023-11-21T00:44:14;2.65;;;1.17;;
77870;SDS011;67067;46.850;7.578;2023-11-21T00:45:17;2.78;;;1.17;;
77870;SDS011;67067;46.850;7.578;2023-11-21T00:46:21;1.02;;;0.88;;
77870;SDS011;67067;46.850;7.578;2023-11-21T00:47:26;2.08;;;1.00;;
77870;SDS011;67067;46.850;7.578;2023-11-21T00:48:28;1.25;;;0.93;;
77870;SDS011;67067;46.850;7.578;2023-11-21T00:50:31;1.13;;;0.70;;
77870;SDS011;67067;46.850;7.578;2023-11-21T00:51:34;1.27;;;0.90;;
77870;SDS011;67067;46.850;7.578;2023-11-21T00:52:38;1.95;;;0.98;;
77870;SDS011;67067;46.850;7.578;2023-11-21T00:53:40;4.95;;;1.10;;
77870;SDS011;67067;46.850;7.578;2023-11-21T00:55:44;2.90;;;1.13;;
77870;SDS011;67067;46.850;7.578;2023-11-21T00:56:46;1.67;;;0.70;;
77870;SDS011;67067;46.850;7.578;2023-11-21T00:57:49;2.92;;;0.85;;
77870;SDS011;67067;46.850;7.578;2023-11-21T00:58:51;1.27;;;0.88;;
77870;SDS011;67067;46.850;7.578;2023-11-21T00:59:56;1.95;;;1.00;;
77870;SDS011;67067;46.850;7.578;2023-11-21T01:02:00;2.20;;;0.85;;
77870;SDS011;67067;46.850;7.578;2023-11-21T01:03:06;3.33;;;1.20;;
77870;SDS011;67067;46.850;7.578;2023-11-21T01:04:09;3.58;;;1.10;;
77870;SDS011;67067;46.850;7.578;2023-11-21T01:05:12;2.60;;;0.80;;
77870;SDS011;67067;46.850;7.578;2023-11-21T01:06:14;1.35;;;0.95;;
77870;SDS011;67067;46.850;7.578;2023-11-21T01:07:19;2.03;;;1.00;;
77870;SDS011;67067;46.850;7.578;2023-11-21T01:08:24;0.77;;;0.77;;
77870;SDS011;67067;46.850;7.578;2023-11-21T01:09:26;2.03;;;0.82;;
77870;SDS011;67067;46.850;7.578;2023-11-21T01:10:29;2.85;;;1.05;;
77870;SDS011;67067;46.850;7.578;2023-11-21T01:11:31;6.28;;;1.30;;
77870;SDS011;67067;46.850;7.578;2023-11-21T01:12:37;6.47;;;1.30;;
77870;SDS011;67067;46.850;7.578;2023-11-21T01:13:39;1.40;;;0.65;;
77870;SDS011;67067;46.850;7.578;2023-11-21T01:14:42;1.60;;;0.80;;
77870;SDS011;67067;46.850;7.578;2023-11-21T01:15:43;1.17;;;0.88;;
77870;SDS011;67067;46.850;7.578;2023-11-21T01:16:45;1.65;;;0.85;;
77870;SDS011;67067;46.850;7.578;2023-11-21T01:17:47;2.78;;;0.98;;
77870;SDS011;67067;46.850;7.578;2023-11-21T01:18:49;4.07;;;1.35;;
77870;SDS011;67067;46.850;7.578;2023-11-21T01:20:53;4.40;;;0.70;;
77870;SDS011;67067;46.850;7.578;2023-11-21T01:21:57;2.38;;;0.73;;
77870;SDS011;67067;46.850;7.578;2023-11-21T01:23:00;4.88;;;1.15;;
77870;SDS011;67067;46.850;7.578;2023-11-21T01:24:04;3.10;;;0.90;;
77870;SDS011;67067;46.850;7.578;2023-11-21T01:25:08;3.95;;;1.00;;
77870;SDS011;67067;46.850;7.578;2023-11-21T01:26:14;1.73;;;1.00;;
77870;SDS011;67067;46.850;7.578;2023-11-21T01:27:16;1.80;;;1.00;;
77870;SDS011;67067;46.850;7.578;2023-11-21T01:28:18;0.80;;;0.80;;
77870;SDS011;67067;46.850;7.578;2023-11-21T01:29:21;2.85;;;1.02;;
77870;SDS011;67067;46.850;7.578;2023-11-21T01:30:23;1.05;;;0.70;;
77870;SDS011;67067;46.850;7.578;2023-11-21T01:31:27;2.67;;;1.17;;
77870;SDS011;67067;46.850;7.578;2023-11-21T01:32:31;1.48;;;0.93;;
77870;SDS011;67067;46.850;7.578;2023-11-21T01:33:33;3.28;;;1.00;;
77870;SDS011;67067;46.850;7.578;2023-11-21T01:34:35;3.17;;;0.75;;
77870;SDS011;67067;46.850;7.578;2023-11-21T01:35:38;2.50;;;1.00;;
77870;SDS011;67067;46.850;7.578;2023-11-21T01:36:39;2.47;;;0.82;;
77870;SDS011;67067;46.850;7.578;2023-11-21T01:38:44;3.30;;;1.30;;
77870;SDS011;67067;46.850;7.578;2023-11-21T01:40:49;3.42;;;1.10;;
77870;SDS011;67067;46.850;7.578;2023-11-21T01:41:52;3.72;;;1.25;;
77870;SDS011;67067;46.850;7.578;2023-11-21T01:43:56;1.08;;;0.98;;
77870;SDS011;67067;46.850;7.578;2023-11-21T01:45:00;1.98;;;0.98;;
77870;SDS011;67067;46.850;7.578;2023-11-21T01:46:05;5.85;;;1.40;;
77870;SDS011;67067;46.850;7.578;2023-11-21T01:47:07;5.40;;;1.17;;
77870;SDS011;67067;46.850;7.578;2023-11-21T01:48:12;1.80;;;1.08;;
77870;SDS011;67067;46.850;7.578;2023-11-21T01:49:15;2.03;;;1.05;;
77870;SDS011;67067;46.850;7.578;2023-11-21T01:50:17;3.88;;;1.30;;
77870;SDS011;67067;46.850;7.578;2023-11-21T01:51:19;2.15;;;1.00;;
77870;SDS011;67067;46.850;7.578;2023-11-21T01:52:21;5.63;;;1.60;;
77870;SDS011;67067;46.850;7.578;2023-11-21T01:53:24;4.55;;;1.55;;
77870;SDS011;67067;46.850;7.578;2023-11-21T01:54:30;3.80;;;1.33;;
77870;SDS011;67067;46.850;7.578;2023-11-21T01:55:35;3.10;;;1.17;;
77870;SDS011;67067;46.850;7.578;2023-11-21T01:56:37;2.85;;;1.23;;
77870;SDS011;67067;46.850;7.578;2023-11-21T01:57:41;4.80;;;1.23;;
77870;SDS011;67067;46.850;7.578;2023-11-21T01:58:43;2.20;;;1.23;;
77870;SDS011;67067;46.850;7.578;2023-11-21T01:59:48;3.45;;;1.40;;
77870;SDS011;67067;46.850;7.578;2023-11-21T02:12:36;6.80;;;1.75;;
77870;SDS011;67067;46.850;7.578;2023-11-21T02:13:40;6.22;;;1.83;;
77870;SDS011;67067;46.850;7.578;2023-11-21T02:14:47;3.75;;;1.33;;
77870;SDS011;67067;46.850;7.578;2023-11-21T02:15:50;4.85;;;1.52;;
77870;SDS011;67067;46.850;7.578;2023-11-21T02:16:54;2.65;;;1.63;;
77870;SDS011;67067;46.850;7.578;2023-11-21T02:18:01;2.67;;;1.30;;
77870;SDS011;67067;46.850;7.578;2023-11-21T02:19:05;6.57;;;1.65;;
77870;SDS011;67067;46.850;7.578;2023-11-21T02:20:11;6.00;;;1.70;;
77870;SDS011;67067;46.850;7.578;2023-11-21T02:21:17;4.65;;;1.48;;
77870;SDS011;67067;46.850;7.578;2023-11-21T02:22:21;1.90;;;1.35;;
77870;SDS011;67067;46.850;7.578;2023-11-21T02:23:26;6.55;;;1.88;;
77870;SDS011;67067;46.850;7.578;2023-11-21T02:24:30;3.67;;;1.25;;
77870;SDS011;67067;46.850;7.578;2023-11-21T02:25:33;2.75;;;1.20;;
77870;SDS011;67067;46.850;7.578;2023-11-21T02:26:39;5.70;;;2.28;;
77870;SDS011;67067;46.850;7.578;2023-11-21T02:28:43;1.98;;;1.52;;
77870;SDS011;67067;46.850;7.578;2023-11-21T02:29:45;5.55;;;1.50;;
77870;SDS011;67067;46.850;7.578;2023-11-21T02:31:56;5.78;;;1.33;;
77870;SDS011;67067;46.850;7.578;2023-11-21T02:32:58;3.22;;;1.35;;
77870;SDS011;67067;46.850;7.578;2023-11-21T02:34:05;5.88;;;1.58;;
77870;SDS011;67067;46.850;7.578;2023-11-21T02:35:09;6.55;;;1.80;;
77870;SDS011;67067;46.850;7.578;2023-11-21T02:36:11;2.53;;;1.52;;
77870;SDS011;67067;46.850;7.578;2023-11-21T02:37:13;4.00;;;1.58;;
77870;SDS011;67067;46.850;7.578;2023-11-21T02:38:15;3.33;;;1.58;;
77870;SDS011;67067;46.850;7.578;2023-11-21T02:39:17;1.52;;;1.15;;
77870;SDS011;67067;46.850;7.578;2023-11-21T02:40:19;3.40;;;1.23;;
77870;SDS011;67067;46.850;7.578;2023-11-21T02:41:28;2.35;;;1.25;;
77870;SDS011;67067;46.850;7.578;2023-11-21T02:42:30;3.55;;;1.77;;
77870;SDS011;67067;46.850;7.578;2023-11-21T02:44:35;3.58;;;1.73;;
77870;SDS011;67067;46.850;7.578;2023-11-21T02:45:37;3.72;;;1.35;;
77870;SDS011;67067;46.850;7.578;2023-11-21T02:46:39;1.85;;;0.90;;
77870;SDS011;67067;46.850;7.578;2023-11-21T02:47:42;3.00;;;1.00;;
77870;SDS011;67067;46.850;7.578;2023-11-21T02:48:44;3.05;;;1.63;;
77870;SDS011;67067;46.850;7.578;2023-11-21T02:50:48;3.90;;;1.13;;
77870;SDS011;67067;46.850;7.578;2023-11-21T02:51:52;4.43;;;1.05;;
77870;SDS011;67067;46.850;7.578;2023-11-21T02:52:54;4.72;;;1.20;;
77870;SDS011;67067;46.850;7.578;2023-11-21T02:54:02;3.47;;;1.60;;
77870;SDS011;67067;46.850;7.578;2023-11-21T02:55:08;3.85;;;1.30;;
77870;SDS011;67067;46.850;7.578;2023-11-21T02:56:10;5.07;;;1.08;;
77870;SDS011;67067;46.850;7.578;2023-11-21T02:57:12;4.75;;;1.38;;
77870;SDS011;67067;46.850;7.578;2023-11-21T02:58:17;3.15;;;1.25;;
77870;SDS011;67067;46.850;7.578;2023-11-21T02:59:19;1.83;;;1.10;;
77870;SDS011;67067;46.850;7.578;2023-11-21T03:01:26;1.92;;;1.00;;
77870;SDS011;67067;46.850;7.578;2023-11-21T03:02:28;3.22;;;1.45;;
77870;SDS011;67067;46.850;7.578;2023-11-21T03:03:30;2.97;;;1.10;;
77870;SDS011;67067;46.850;7.578;2023-11-21T03:04:35;2.38;;;1.00;;
77870;SDS011;67067;46.850;7.578;2023-11-21T03:05:39;3.22;;;1.48;;
77870;SDS011;67067;46.850;7.578;2023-11-21T03:06:41;5.75;;;1.15;;
77870;SDS011;67067;46.850;7.578;2023-11-21T03:07:43;1.58;;;1.30;;
77870;SDS011;67067;46.850;7.578;2023-11-21T03:09:47;3.72;;;1.17;;
77870;SDS011;67067;46.850;7.578;2023-11-21T03:10:49;2.78;;;1.10;;
77870;SDS011;67067;46.850;7.578;2023-11-21T03:11:51;2.75;;;1.35;;
77870;SDS011;67067;46.850;7.578;2023-11-21T03:12:55;3.00;;;1.27;;
77870;SDS011;67067;46.850;7.578;2023-11-21T03:13:58;4.00;;;1.42;;
77870;SDS011;67067;46.850;7.578;2023-11-21T03:16:03;5.35;;;1.55;;
77870;SDS011;67067;46.850;7.578;2023-11-21T03:17:05;4.32;;;1.73;;
77870;SDS011;67067;46.850;7.578;2023-11-21T03:18:08;3.10;;;1.30;;
77870;SDS011;67067;46.850;7.578;2023-11-21T03:19:12;5.38;;;1.65;;
77870;SDS011;67067;46.850;7.578;2023-11-21T03:21:17;5.63;;;1.38;;
77870;SDS011;67067;46.850;7.578;2023-11-21T03:22:21;4.72;;;1.55;;
77870;SDS011;67067;46.850;7.578;2023-11-21T03:23:25;5.10;;;1.52;;
77870;SDS011;67067;46.850;7.578;2023-11-21T03:25:28;3.22;;;1.55;;
77870;SDS011;67067;46.850;7.578;2023-11-21T03:26:30;4.75;;;1.27;;
77870;SDS011;67067;46.850;7.578;2023-11-21T03:28:36;2.75;;;1.10;;
77870;SDS011;67067;46.850;7.578;2023-11-21T03:29:38;2.00;;;1.27;;
77870;SDS011;67067;46.850;7.578;2023-11-21T03:30:40;1.35;;;1.10;;
77870;SDS011;67067;46.850;7.578;2023-11-21T03:32:44;2.92;;;1.10;;
77870;SDS011;67067;46.850;7.578;2023-11-21T03:33:46;3.25;;;1.20;;
77870;SDS011;67067;46.850;7.578;2023-11-21T03:34:55;5.18;;;1.33;;
77870;SDS011;67067;46.850;7.578;2023-11-21T03:36:00;2.90;;;1.40;;
77870;SDS011;67067;46.850;7.578;2023-11-21T03:37:01;2.33;;;1.20;;
77870;SDS011;67067;46.850;7.578;2023-11-21T03:38:03;2.20;;;1.00;;
77870;SDS011;67067;46.850;7.578;2023-11-21T03:39:07;3.90;;;1.02;;
77870;SDS011;67067;46.850;7.578;2023-11-21T03:41:11;3.72;;;1.10;;
77870;SDS011;67067;46.850;7.578;2023-11-21T03:42:13;3.65;;;1.17;;
77870;SDS011;67067;46.850;7.578;2023-11-21T03:43:15;3.08;;;1.20;;
77870;SDS011;67067;46.850;7.578;2023-11-21T03:44:17;1.83;;;1.10;;
77870;SDS011;67067;46.850;7.578;2023-11-21T03:45:19;3.92;;;1.48;;
77870;SDS011;67067;46.850;7.578;2023-11-21T03:46:22;3.60;;;1.42;;
77870;SDS011;67067;46.850;7.578;2023-11-21T03:48:27;2.40;;;1.20;;
77870;SDS011;67067;46.850;7.578;2023-11-21T03:49:32;3.00;;;1.40;;
77870;SDS011;67067;46.850;7.578;2023-11-21T03:51:36;2.72;;;1.05;;
77870;SDS011;67067;46.850;7.578;2023-11-21T03:52:40;3.60;;;1.27;;
77870;SDS011;67067;46.850;7.578;2023-11-21T03:53:43;3.53;;;1.17;;
77870;SDS011;67067;46.850;7.578;2023-11-21T03:55:46;1.63;;;1.00;;
77870;SDS011;67067;46.850;7.578;2023-11-21T03:56:48;5.65;;;1.48;;
77870;SDS011;67067;46.850;7.578;2023-11-21T03:57:51;4.20;;;1.50;;
77870;SDS011;67067;46.850;7.578;2023-11-21T03:58:55;3.47;;;1.20;;
77870;SDS011;67067;46.850;7.578;2023-11-21T03:59:58;6.20;;;1.45;;
77870;SDS011;67067;46.850;7.578;2023-11-21T04:02:03;2.00;;;1.40;;
77870;SDS011;67067;46.850;7.578;2023-11-21T04:03:05;4.35;;;1.30;;
77870;SDS011;67067;46.850;7.578;2023-11-21T04:04:07;5.45;;;1.42;;
77870;SDS011;67067;46.850;7.578;2023-11-21T04:05:09;2.65;;;1.10;;
77870;SDS011;67067;46.850;7.578;2023-11-21T04:06:11;2.20;;;1.50;;
77870;SDS011;67067;46.850;7.578;2023-11-21T04:08:14;4.22;;;1.20;;
77870;SDS011;67067;46.850;7.578;2023-11-21T04:09:16;1.50;;;1.15;;
77870;SDS011;67067;46.850;7.578;2023-11-21T04:10:19;5.57;;;1.45;;
77870;SDS011;67067;46.850;7.578;2023-11-21T04:11:21;2.00;;;1.30;;
77870;SDS011;67067;46.850;7.578;2023-11-21T04:13:24;2.47;;;1.35;;
77870;SDS011;67067;46.850;7.578;2023-11-21T04:14:26;2.70;;;0.98;;
77870;SDS011;67067;46.850;7.578;2023-11-21T04:15:29;3.90;;;1.15;;
77870;SDS011;67067;46.850;7.578;2023-11-21T04:17:32;4.47;;;1.02;;
77870;SDS011;67067;46.850;7.578;2023-11-21T04:19:41;4.30;;;1.40;;
77870;SDS011;67067;46.850;7.578;2023-11-21T04:21:44;2.97;;;1.40;;
77870;SDS011;67067;46.850;7.578;2023-11-21T04:22:51;3.58;;;1.00;;
77870;SDS011;67067;46.850;7.578;2023-11-21T04:23:53;2.40;;;1.02;;
77870;SDS011;67067;46.850;7.578;2023-11-21T04:24:57;2.35;;;1.30;;
77870;SDS011;67067;46.850;7.578;2023-11-21T04:25:59;7.80;;;2.03;;
77870;SDS011;67067;46.850;7.578;2023-11-21T04:27:03;6.18;;;1.50;;
77870;SDS011;67067;46.850;7.578;2023-11-21T04:28:05;5.00;;;1.48;;
77870;SDS011;67067;46.850;7.578;2023-11-21T04:29:10;3.03;;;1.35;;
77870;SDS011;67067;46.850;7.578;2023-11-21T04:31:17;1.73;;;1.15;;
77870;SDS011;67067;46.850;7.578;2023-11-21T04:32:19;2.13;;;1.33;;
77870;SDS011;67067;46.850;7.578;2023-11-21T04:34:23;2.05;;;1.30;;
77870;SDS011;67067;46.850;7.578;2023-11-21T04:35:25;2.75;;;1.50;;
77870;SDS011;67067;46.850;7.578;2023-11-21T04:37:29;2.38;;;1.08;;
77870;SDS011;67067;46.850;7.578;2023-11-21T04:38:31;5.05;;;1.10;;
77870;SDS011;67067;46.850;7.578;2023-11-21T04:39:34;3.25;;;1.40;;
77870;SDS011;67067;46.850;7.578;2023-11-21T04:41:40;2.83;;;1.00;;
77870;SDS011;67067;46.850;7.578;2023-11-21T04:43:43;3.20;;;1.13;;
77870;SDS011;67067;46.850;7.578;2023-11-21T04:44:45;5.40;;;1.15;;
77870;SDS011;67067;46.850;7.578;2023-11-21T04:45:49;1.85;;;1.08;;
77870;SDS011;67067;46.850;7.578;2023-11-21T04:46:55;4.78;;;1.67;;
77870;SDS011;67067;46.850;7.578;2023-11-21T04:47:58;2.72;;;1.40;;
77870;SDS011;67067;46.850;7.578;2023-11-21T04:49:00;3.13;;;1.65;;
77870;SDS011;67067;46.850;7.578;2023-11-21T04:51:07;4.68;;;2.17;;
77870;SDS011;67067;46.850;7.578;2023-11-21T04:53:13;6.00;;;2.25;;
77870;SDS011;67067;46.850;7.578;2023-11-21T04:54:15;5.50;;;2.00;;
77870;SDS011;67067;46.850;7.578;2023-11-21T04:56:19;7.10;;;2.15;;
77870;SDS011;67067;46.850;7.578;2023-11-21T04:57:21;4.30;;;1.63;;
77870;SDS011;67067;46.850;7.578;2023-11-21T04:59:25;3.55;;;1.67;;
77870;SDS011;67067;46.850;7.578;2023-11-21T05:02:18;6.38;;;1.73;;
77870;SDS011;67067;46.850;7.578;2023-11-21T05:03:35;1.90;;;1.40;;
77870;SDS011;67067;46.850;7.578;2023-11-21T05:04:40;4.43;;;1.17;;
77870;SDS011;67067;46.850;7.578;2023-11-21T05:05:44;2.78;;;0.80;;
77870;SDS011;67067;46.850;7.578;2023-11-21T05:07:50;3.58;;;1.00;;
77870;SDS011;67067;46.850;7.578;2023-11-21T05:08:52;3.47;;;1.00;;
77870;SDS011;67067;46.850;7.578;2023-11-21T05:09:54;1.95;;;1.30;;
77870;SDS011;67067;46.850;7.578;2023-11-21T05:10:56;2.80;;;1.48;;
77870;SDS011;67067;46.850;7.578;2023-11-21T05:11:58;2.10;;;1.13;;
77870;SDS011;67067;46.850;7.578;2023-11-21T05:13:03;2.80;;;1.48;;
77870;SDS011;67067;46.850;7.578;2023-11-21T05:15:07;4.22;;;1.75;;
77870;SDS011;67067;46.850;7.578;2023-11-21T05:16:13;6.25;;;2.40;;
77870;SDS011;67067;46.850;7.578;2023-11-21T05:17:15;21.05;;;15.52;;
77870;SDS011;67067;46.850;7.578;2023-11-21T05:18:18;26.85;;;20.95;;
77870;SDS011;67067;46.850;7.578;2023-11-21T05:19:19;18.38;;;13.05;;
77870;SDS011;67067;46.850;7.578;2023-11-21T05:20:24;18.92;;;12.38;;
77870;SDS011;67067;46.850;7.578;2023-11-21T05:21:29;12.07;;;7.90;;
77870;SDS011;67067;46.850;7.578;2023-11-21T05:22:33;7.38;;;4.45;;
77870;SDS011;67067;46.850;7.578;2023-11-21T05:23:38;6.13;;;3.63;;
77870;SDS011;67067;46.850;7.578;2023-11-21T05:24:43;3.63;;;2.28;;
77870;SDS011;67067;46.850;7.578;2023-11-21T05:25:45;3.75;;;2.45;;
77870;SDS011;67067;46.850;7.578;2023-11-21T05:26:47;4.47;;;2.30;;
77870;SDS011;67067;46.850;7.578;2023-11-21T05:28:51;6.07;;;2.72;;
77870;SDS011;67067;46.850;7.578;2023-11-21T05:29:52;6.57;;;3.20;;
77870;SDS011;67067;46.850;7.578;2023-11-21T05:30:57;3.95;;;2.40;;
77870;SDS011;67067;46.850;7.578;2023-11-21T05:32:16;3.85;;;2.60;;
77870;SDS011;67067;46.850;7.578;2023-11-21T05:33:20;1.95;;;1.67;;
77870;SDS011;67067;46.850;7.578;2023-11-21T05:34:22;3.95;;;1.83;;
77870;SDS011;67067;46.850;7.578;2023-11-21T05:35:27;3.50;;;2.05;;
77870;SDS011;67067;46.850;7.578;2023-11-21T05:36:29;3.95;;;1.75;;
77870;SDS011;67067;46.850;7.578;2023-11-21T05:38:32;5.53;;;1.93;;
77870;SDS011;67067;46.850;7.578;2023-11-21T05:40:37;2.72;;;1.70;;
77870;SDS011;67067;46.850;7.578;2023-11-21T05:41:39;3.88;;;2.05;;
77870;SDS011;67067;46.850;7.578;2023-11-21T05:43:43;5.32;;;1.77;;
77870;SDS011;67067;46.850;7.578;2023-11-21T05:44:45;6.60;;;1.85;;
77870;SDS011;67067;46.850;7.578;2023-11-21T05:46:48;5.90;;;1.88;;
77870;SDS011;67067;46.850;7.578;2023-11-21T05:47:51;5.30;;;1.55;;
77870;SDS011;67067;46.850;7.578;2023-11-21T05:48:55;6.53;;;1.85;;
77870;SDS011;67067;46.850;7.578;2023-11-21T05:50:58;4.72;;;1.52;;
77870;SDS011;67067;46.850;7.578;2023-11-21T05:52:00;4.10;;;1.77;;
77870;SDS011;67067;46.850;7.578;2023-11-21T05:53:03;2.40;;;1.52;;
77870;SDS011;67067;46.850;7.578;2023-11-21T05:54:05;2.67;;;1.90;;
77870;SDS011;67067;46.850;7.578;2023-11-21T05:55:07;4.60;;;1.85;;
77870;SDS011;67067;46.850;7.578;2023-11-21T05:56:13;4.63;;;1.85;;
77870;SDS011;67067;46.850;7.578;2023-11-21T05:57:15;2.88;;;1.40;;
77870;SDS011;67067;46.850;7.578;2023-11-21T05:58:16;4.53;;;1.95;;
77870;SDS011;67067;46.850;7.578;2023-11-21T06:00:24;5.10;;;1.55;;
77870;SDS011;67067;46.850;7.578;2023-11-21T06:01:27;7.03;;;2.00;;
77870;SDS011;67067;46.850;7.578;2023-11-21T06:02:29;2.00;;;1.27;;
77870;SDS011;67067;46.850;7.578;2023-11-21T06:03:31;4.80;;;1.77;;
77870;SDS011;67067;46.850;7.578;2023-11-21T06:04:33;6.38;;;2.15;;
77870;SDS011;67067;46.850;7.578;2023-11-21T06:05:37;4.70;;;1.85;;
77870;SDS011;67067;46.850;7.578;2023-11-21T06:06:40;3.75;;;1.70;;
77870;SDS011;67067;46.850;7.578;2023-11-21T06:08:43;2.08;;;1.83;;
77870;SDS011;67067;46.850;7.578;2023-11-21T06:09:45;5.18;;;2.55;;
77870;SDS011;67067;46.850;7.578;2023-11-21T06:11:51;7.63;;;2.80;;
77870;SDS011;67067;46.850;7.578;2023-11-21T06:12:55;6.05;;;2.22;;
77870;SDS011;67067;46.850;7.578;2023-11-21T06:13:57;3.22;;;1.60;;
77870;SDS011;67067;46.850;7.578;2023-11-21T06:15:00;4.82;;;1.63;;
77870;SDS011;67067;46.850;7.578;2023-11-21T06:16:05;4.85;;;2.53;;
77870;SDS011;67067;46.850;7.578;2023-11-21T06:17:07;12.07;;;4.45;;
77870;SDS011;67067;46.850;7.578;2023-11-21T06:18:11;7.93;;;3.95;;
77870;SDS011;67067;46.850;7.578;2023-11-21T06:19:16;6.80;;;3.17;;
77870;SDS011;67067;46.850;7.578;2023-11-21T06:20:19;3.63;;;2.35;;
77870;SDS011;67067;46.850;7.578;2023-11-21T06:21:23;4.65;;;1.80;;
77870;SDS011;67067;46.850;7.578;2023-11-21T06:22:26;2.90;;;1.67;;
77870;SDS011;67067;46.850;7.578;2023-11-21T06:24:29;3.40;;;1.50;;
77870;SDS011;67067;46.850;7.578;2023-11-21T06:25:31;5.00;;;2.30;;
77870;SDS011;67067;46.850;7.578;2023-11-21T06:26:37;4.93;;;2.40;;
77870;SDS011;67067;46.850;7.578;2023-11-21T06:27:41;5.07;;;1.80;;
77870;SDS011;67067;46.850;7.578;2023-11-21T06:28:44;3.08;;;2.00;;
77870;SDS011;67067;46.850;7.578;2023-11-21T06:29:49;3.42;;;1.80;;
77870;SDS011;67067;46.850;7.578;2023-11-21T06:31:54;4.30;;;1.70;;
77870;SDS011;67067;46.850;7.578;2023-11-21T06:32:56;4.55;;;2.03;;
77870;SDS011;67067;46.850;7.578;2023-11-21T06:33:58;4.20;;;1.67;;
77870;SDS011;67067;46.850;7.578;2023-11-21T06:35:02;2.45;;;1.77;;
77870;SDS011;67067;46.850;7.578;2023-11-21T06:36:05;3.75;;;1.65;;
77870;SDS011;67067;46.850;7.578;2023-11-21T06:37:08;1.88;;;1.33;;
77870;SDS011;67067;46.850;7.578;2023-11-21T06:38:10;6.70;;;1.88;;
77870;SDS011;67067;46.850;7.578;2023-11-21T06:39:11;2.38;;;2.17;;
77870;SDS011;67067;46.850;7.578;2023-11-21T06:40:16;4.95;;;2.13;;
77870;SDS011;67067;46.850;7.578;2023-11-21T06:41:26;4.22;;;2.42;;
77870;SDS011;67067;46.850;7.578;2023-11-21T06:43:30;3.78;;;2.00;;
77870;SDS011;67067;46.850;7.578;2023-11-21T06:44:35;5.35;;;2.08;;
77870;SDS011;67067;46.850;7.578;2023-11-21T06:45:38;2.45;;;2.00;;
77870;SDS011;67067;46.850;7.578;2023-11-21T06:47:44;3.47;;;1.98;;
77870;SDS011;67067;46.850;7.578;2023-11-21T06:48:46;2.28;;;1.98;;
77870;SDS011;67067;46.850;7.578;2023-11-21T06:49:50;4.43;;;1.70;;
77870;SDS011;67067;46.850;7.578;2023-11-21T06:50:56;3.92;;;1.77;;
77870;SDS011;67067;46.850;7.578;2023-11-21T06:53:00;3.15;;;1.80;;
77870;SDS011;67067;46.850;7.578;2023-11-21T06:54:04;8.13;;;2.28;;
77870;SDS011;67067;46.850;7.578;2023-11-21T06:55:07;5.00;;;1.92;;
77870;SDS011;67067;46.850;7.578;2023-11-21T06:56:15;4.07;;;1.83;;
77870;SDS011;67067;46.850;7.578;2023-11-21T06:57:19;3.72;;;1.10;;
77870;SDS011;67067;46.850;7.578;2023-11-21T06:59:23;6.50;;;1.63;;
77870;SDS011;67067;46.850;7.578;2023-11-21T07:00:25;5.82;;;1.77;;
77870;SDS011;67067;46.850;7.578;2023-11-21T07:01:29;3.05;;;1.38;;
77870;SDS011;67067;46.850;7.578;2023-11-21T07:02:31;4.68;;;1.85;;
77870;SDS011;67067;46.850;7.578;2023-11-21T07:03:33;6.80;;;2.20;;
77870;SDS011;67067;46.850;7.578;2023-11-21T07:04:35;4.35;;;1.63;;
77870;SDS011;67067;46.850;7.578;2023-11-21T07:05:37;4.35;;;1.67;;
77870;SDS011;67067;46.850;7.578;2023-11-21T07:07:41;4.82;;;1.98;;
77870;SDS011;67067;46.850;7.578;2023-11-21T07:08:43;3.72;;;1.80;;
77870;SDS011;67067;46.850;7.578;2023-11-21T07:09:45;4.82;;;2.20;;
77870;SDS011;67067;46.850;7.578;2023-11-21T07:10:46;6.10;;;2.17;;
77870;SDS011;67067;46.850;7.578;2023-11-21T07:11:49;7.18;;;2.40;;
77870;SDS011;67067;46.850;7.578;2023-11-21T07:12:53;6.80;;;1.98;;
77870;SDS011;67067;46.850;7.578;2023-11-21T07:14:57;7.32;;;2.47;;
77870;SDS011;67067;46.850;7.578;2023-11-21T07:15:59;6.30;;;2.83;;
77870;SDS011;67067;46.850;7.578;2023-11-21T07:17:01;5.28;;;2.25;;
77870;SDS011;67067;46.850;7.578;2023-11-21T07:18:03;6.97;;;3.30;;
77870;SDS011;67067;46.850;7.578;2023-11-21T07:19:05;10.13;;;3.22;;
77870;SDS011;67067;46.850;7.578;2023-11-21T07:20:14;12.85;;;4.30;;
77870;SDS011;67067;46.850;7.578;2023-11-21T07:21:18;22.05;;;7.32;;
77870;SDS011;67067;46.850;7.578;2023-11-21T07:22:22;27.17;;;9.75;;
77870;SDS011;67067;46.850;7.578;2023-11-21T07:23:24;26.90;;;9.77;;
77870;SDS011;67067;46.850;7.578;2023-11-21T07:25:28;25.30;;;8.32;;
77870;SDS011;67067;46.850;7.578;2023-11-21T07:26:32;26.05;;;9.80;;
77870;SDS011;67067;46.850;7.578;2023-11-21T07:27:34;31.92;;;11.13;;
77870;SDS011;67067;46.850;7.578;2023-11-21T07:28:37;32.47;;;13.38;;
77870;SDS011;67067;46.850;7.578;2023-11-21T07:29:39;30.90;;;12.45;;
77870;SDS011;67067;46.850;7.578;2023-11-21T07:30:42;32.83;;;12.32;;
77870;SDS011;67067;46.850;7.578;2023-11-21T07:31:44;26.67;;;10.35;;
77870;SDS011;67067;46.850;7.578;2023-11-21T07:33:49;29.05;;;10.43;;
77870;SDS011;67067;46.850;7.578;2023-11-21T07:34:54;28.50;;;10.35;;
77870;SDS011;67067;46.850;7.578;2023-11-21T07:35:59;29.35;;;10.80;;
77870;SDS011;67067;46.850;7.578;2023-11-21T07:38:02;29.00;;;10.50;;
77870;SDS011;67067;46.850;7.578;2023-11-21T07:39:05;28.95;;;10.93;;
77870;SDS011;67067;46.850;7.578;2023-11-21T07:40:09;33.78;;;13.60;;
77870;SDS011;67067;46.850;7.578;2023-11-21T07:41:13;36.97;;;13.82;;